Time;durP1;ratioP1;P1;durP2;ratioP2;P2;SDS_P1;SDS_P2;PMS_P1;PMS_P2;Temp;Humidity;BMP_temperature;BMP_pressure;BME280_temperature;BME280_humidity;BME280_pressure;Samples;Min_cycle;Max_cycle;Signal;HPM_P1;HPM_P2
2024/02/07 00:02:34;;;;;;;7.43;1.30;;;6.70;99.90;;;;;;6226042;28;20399;-88
2024/02/07 00:05:36;;;;;;;5.60;1.30;;;6.50;99.90;;;;;;6226198;28;20053;-86
2024/02/07 00:08:38;;;;;;;5.35;1.35;;;6.40;99.90;;;;;;6225766;28;20111;-85
2024/02/07 00:11:39;;;;;;;5.35;1.40;;;6.50;99.90;;;;;;6226087;28;20065;-85
2024/02/07 00:14:41;;;;;;;5.10;1.13;;;6.50;99.90;;;;;;6224976;28;20452;-86
2024/02/07 00:17:43;;;;;;;4.53;1.42;;;6.40;99.90;;;;;;6226766;28;20050;-87
2024/02/07 00:20:44;;;;;;;4.93;1.27;;;6.40;99.90;;;;;;6225000;28;20057;-85
2024/02/07 00:23:46;;;;;;;6.75;1.70;;;6.40;99.90;;;;;;6225165;28;20062;-87
2024/02/07 00:26:48;;;;;;;5.53;1.40;;;6.30;99.90;;;;;;6226390;28;20050;-87
2024/02/07 00:29:50;;;;;;;3.50;1.50;;;6.30;99.90;;;;;;6225459;28;20042;-88
2024/02/07 00:32:51;;;;;;;6.03;1.38;;;6.30;99.90;;;;;;6223090;28;20493;-88
2024/02/07 00:35:53;;;;;;;9.05;1.70;;;6.20;99.90;;;;;;6222083;28;20136;-88
2024/02/07 00:38:55;;;;;;;5.20;1.15;;;6.20;99.90;;;;;;6220978;28;20089;-87
2024/02/07 00:41:56;;;;;;;5.32;1.20;;;6.20;99.90;;;;;;6220463;28;20052;-88
2024/02/07 00:44:58;;;;;;;6.70;1.10;;;6.10;99.90;;;;;;6222061;28;20060;-87
2024/02/07 00:48:00;;;;;;;5.38;0.95;;;6.00;99.90;;;;;;6225360;28;20046;-89
2024/02/07 00:51:01;;;;;;;5.47;1.13;;;6.10;99.90;;;;;;6225793;28;20077;-88
2024/02/07 00:54:03;;;;;;;4.07;1.20;;;6.00;99.90;;;;;;6208567;28;20053;-89
2024/02/07 00:57:05;;;;;;;4.78;1.20;;;6.00;99.90;;;;;;6225688;28;20053;-86
2024/02/07 01:00:07;;;;;;;5.53;1.08;;;6.00;99.90;;;;;;6225349;28;20465;-88
2024/02/07 01:03:09;;;;;;;7.32;1.20;;;6.00;99.90;;;;;;6207799;28;20402;-88
2024/02/07 01:06:11;;;;;;;6.45;1.30;;;6.10;99.90;;;;;;6206771;28;20505;-87
2024/02/07 01:09:12;;;;;;;4.68;1.05;;;6.10;99.90;;;;;;6224938;28;20077;-88
2024/02/07 01:12:14;;;;;;;4.68;1.10;;;5.90;99.90;;;;;;6225237;28;20045;-88
2024/02/07 01:15:16;;;;;;;3.97;0.95;;;6.00;99.90;;;;;;6224155;28;20042;-88
2024/02/07 01:18:17;;;;;;;5.05;1.10;;;5.90;99.90;;;;;;6225526;28;20417;-87
2024/02/07 01:21:19;;;;;;;4.72;1.20;;;5.90;99.90;;;;;;6225603;28;20069;-87
2024/02/07 01:24:24;;;;;;;6.20;1.25;;;5.90;99.90;;;;;;6225083;28;20058;-88
2024/02/07 01:27:26;;;;;;;5.32;1.27;;;6.00;99.90;;;;;;6224581;28;20530;-86
2024/02/07 01:30:28;;;;;;;5.82;1.38;;;6.00;99.90;;;;;;6223931;28;20053;-87
2024/02/07 01:33:30;;;;;;;4.60;1.02;;;5.90;99.90;;;;;;6223362;28;20053;-88
2024/02/07 01:36:31;;;;;;;5.30;1.20;;;5.90;99.90;;;;;;6224172;28;20402;-88
2024/02/07 01:39:34;;;;;;;6.65;1.83;;;5.90;99.90;;;;;;6223837;28;20505;-87
2024/02/07 01:42:36;;;;;;;5.53;1.27;;;5.90;99.90;;;;;;6225310;28;20050;-88
2024/02/07 01:45:38;;;;;;;6.25;1.40;;;5.80;99.90;;;;;;6223958;28;20053;-88
2024/02/07 01:48:42;;;;;;;8.95;1.55;;;5.80;99.90;;;;;;6224367;28;20053;-87
2024/02/07 01:51:44;;;;;;;5.30;1.50;;;5.80;99.90;;;;;;6223967;28;20167;-87
2024/02/07 01:54:46;;;;;;;3.92;1.30;;;5.90;99.90;;;;;;6224916;28;20054;-88
2024/02/07 01:57:48;;;;;;;5.53;1.27;;;5.80;99.90;;;;;;6225155;28;20060;-89
2024/02/07 02:00:50;;;;;;;6.35;1.85;;;5.80;99.90;;;;;;6228846;28;20042;-88
2024/02/07 02:03:51;;;;;;;3.90;1.50;;;5.90;99.90;;;;;;6209720;28;20049;-88
2024/02/07 02:06:53;;;;;;;4.95;1.60;;;5.90;99.90;;;;;;6225966;28;20413;-88
2024/02/07 02:09:55;;;;;;;4.45;1.70;;;5.80;99.90;;;;;;6228735;28;20164;-89
2024/02/07 02:12:56;;;;;;;4.53;1.60;;;5.90;99.90;;;;;;6228269;28;20050;-88
2024/02/07 02:15:58;;;;;;;4.00;1.70;;;5.90;99.90;;;;;;6224871;28;20387;-88
2024/02/07 02:19:00;;;;;;;5.28;1.95;;;5.90;99.90;;;;;;6229602;28;20473;-87
2024/02/07 02:22:02;;;;;;;4.97;1.90;;;5.90;99.90;;;;;;6227987;28;20046;-86
2024/02/07 02:25:03;;;;;;;4.05;1.75;;;5.80;99.90;;;;;;6227708;28;20062;-86
2024/02/07 02:28:07;;;;;;;4.03;1.67;;;5.90;99.90;;;;;;6227892;28;20061;-86
2024/02/07 02:31:09;;;;;;;3.42;1.75;;;5.90;99.90;;;;;;6227099;28;20052;-87
2024/02/07 02:34:10;;;;;;;4.95;1.75;;;5.80;99.90;;;;;;6228113;28;20047;-85
2024/02/07 02:37:13;;;;;;;5.03;1.65;;;5.80;99.90;;;;;;6226781;28;20493;-85
2024/02/07 02:40:15;;;;;;;5.78;1.83;;;5.80;99.90;;;;;;6227034;28;20060;-86
2024/02/07 02:43:23;;;;;;;5.32;1.65;;;5.90;99.90;;;;;;6227741;28;20512;-86
2024/02/07 02:46:25;;;;;;;4.68;1.65;;;5.90;99.90;;;;;;6228548;28;20068;-86
2024/02/07 02:49:27;;;;;;;4.70;1.63;;;5.90;99.90;;;;;;6227992;28;20132;-88
2024/02/07 02:52:29;;;;;;;5.05;1.70;;;5.90;99.90;;;;;;6228918;28;20050;-87
2024/02/07 02:55:31;;;;;;;4.90;1.65;;;5.90;99.90;;;;;;6228352;28;20054;-88
2024/02/07 02:58:35;;;;;;;5.03;1.85;;;5.80;99.90;;;;;;6226752;28;20493;-88
2024/02/07 03:01:44;;;;;;;4.22;1.70;;;5.90;99.90;;;;;;6226711;28;20819;-87
2024/02/07 03:04:49;;;;;;;5.90;1.77;;;5.80;99.90;;;;;;6227662;28;20156;-87
2024/02/07 03:07:54;;;;;;;5.35;1.88;;;5.90;99.90;;;;;;6211135;28;20046;-86
2024/02/07 03:10:58;;;;;;;6.30;1.77;;;5.80;99.90;;;;;;6227338;28;20505;-85
2024/02/07 03:14:00;;;;;;;5.25;1.50;;;5.80;99.90;;;;;;6210455;28;20132;-88
2024/02/07 03:17:01;;;;;;;4.45;1.40;;;5.80;99.90;;;;;;6228934;28;20085;-87
2024/02/07 03:20:05;;;;;;;5.70;1.55;;;5.80;99.90;;;;;;6227461;28;20053;-87
2024/02/07 03:23:08;;;;;;;4.65;1.23;;;5.80;99.90;;;;;;6228061;28;20529;-88
2024/02/07 03:26:11;;;;;;;5.28;1.30;;;5.80;99.90;;;;;;6228168;28;20466;-86
2024/02/07 03:29:12;;;;;;;5.03;1.30;;;5.70;99.90;;;;;;6227310;28;20054;-86
2024/02/07 03:32:15;;;;;;;8.18;1.63;;;5.70;99.90;;;;;;6227636;28;20046;-86
2024/02/07 03:35:16;;;;;;;6.63;1.52;;;5.50;99.90;;;;;;6226187;28;20064;-88
2024/02/07 03:38:18;;;;;;;7.75;1.70;;;5.60;99.90;;;;;;6226686;28;20160;-87
2024/02/07 03:41:20;;;;;;;6.57;1.38;;;5.50;99.90;;;;;;6223690;28;20080;-86
2024/02/07 03:44:23;;;;;;;5.03;1.65;;;5.50;99.90;;;;;;6206404;28;20057;-86
2024/02/07 03:47:24;;;;;;;6.45;1.40;;;5.50;99.90;;;;;;6223479;28;20049;-85
2024/02/07 03:50:27;;;;;;;4.75;1.40;;;5.40;99.90;;;;;;6224030;28;20143;-85
2024/02/07 03:53:30;;;;;;;8.40;1.70;;;5.40;99.90;;;;;;6223726;28;20168;-85
2024/02/07 03:56:33;;;;;;;7.90;1.50;;;5.40;99.90;;;;;;6214212;28;20093;-85
2024/02/07 03:59:34;;;;;;;8.57;1.63;;;5.40;99.90;;;;;;6247611;23;20051;-86
2024/02/07 04:02:36;;;;;;;6.28;1.27;;;5.40;99.90;;;;;;6270429;28;20522;-85
2024/02/07 04:05:37;;;;;;;6.90;1.50;;;5.40;99.90;;;;;;6247188;28;20411;-87
2024/02/07 04:08:39;;;;;;;6.43;1.20;;;5.30;99.90;;;;;;6270786;28;20419;-86
2024/02/07 05:17:51;;;;;;;3.55;1.35;;;5.20;99.90;;;;;;6269244;28;19931;-83
2024/02/07 05:20:53;;;;;;;3.65;1.55;;;5.30;99.90;;;;;;6291829;28;20071;-84
2024/02/07 05:23:56;;;;;;;5.15;1.30;;;5.20;99.90;;;;;;6271519;28;20048;-83
2024/02/07 05:26:57;;;;;;;3.65;1.00;;;5.20;99.90;;;;;;6268841;28;20057;-84
2024/02/07 05:29:59;;;;;;;5.78;1.05;;;5.00;99.90;;;;;;6287549;28;20526;-84
2024/02/07 05:33:01;;;;;;;8.57;1.10;;;5.10;99.90;;;;;;6267037;28;20419;-83
2024/02/07 05:36:03;;;;;;;6.95;1.33;;;5.10;99.90;;;;;;6291172;28;20497;-83
2024/02/07 05:39:04;;;;;;;5.78;0.90;;;5.10;99.90;;;;;;6269218;28;20370;-85
2024/02/07 05:42:06;;;;;;;5.22;1.13;;;5.10;99.90;;;;;;6291243;28;20056;-85
2024/02/07 05:45:08;;;;;;;7.20;1.55;;;5.10;99.90;;;;;;6272011;28;20385;-83
2024/02/07 05:48:10;;;;;;;9.15;1.20;;;5.10;99.90;;;;;;6267452;28;20056;-84
2024/02/07 05:51:12;;;;;;;5.57;1.20;;;5.10;99.90;;;;;;6292648;28;20040;-83
2024/02/07 05:54:14;;;;;;;10.48;1.70;;;5.10;99.90;;;;;;6267751;28;20053;-84
2024/02/07 05:57:15;;;;;;;8.15;1.30;;;5.10;99.90;;;;;;6293160;28;20053;-84
2024/02/07 06:00:17;;;;;;;7.53;1.55;;;5.10;99.90;;;;;;6248823;28;20053;-84
2024/02/07 06:03:19;;;;;;;10.00;1.50;;;5.10;99.90;;;;;;6291261;28;20052;-84
2024/02/07 06:06:22;;;;;;;10.38;1.60;;;5.10;99.90;;;;;;6282753;28;20049;-83
2024/02/07 06:09:24;;;;;;;7.00;1.42;;;5.10;99.90;;;;;;6268274;28;20060;-83
2024/02/07 06:12:26;;;;;;;8.05;1.63;;;5.00;99.90;;;;;;6290772;28;20048;-84
2024/02/07 06:15:27;;;;;;;6.40;1.83;;;5.10;99.90;;;;;;6248803;28;20415;-84
2024/02/07 06:18:29;;;;;;;9.43;1.83;;;5.10;99.90;;;;;;6292278;28;20044;-83
2024/02/07 06:21:31;;;;;;;5.47;1.83;;;5.00;99.90;;;;;;6282105;28;20072;-84
2024/02/07 06:24:33;;;;;;;10.07;2.15;;;5.10;99.90;;;;;;6286323;28;20048;-83
2024/02/07 06:27:36;;;;;;;7.20;1.83;;;5.10;99.90;;;;;;6275479;28;20057;-84
2024/02/07 06:30:44;;;;;;;5.45;1.67;;;5.00;99.90;;;;;;6273542;28;20442;-84
2024/02/07 06:33:46;;;;;;;7.75;1.88;;;4.90;99.90;;;;;;6287605;28;20061;-84
2024/02/07 06:36:48;;;;;;;8.43;1.90;;;5.00;99.90;;;;;;6286497;28;20063;-85
2024/02/07 06:39:50;;;;;;;5.85;1.60;;;5.00;99.90;;;;;;6286746;28;20048;-85
2024/02/07 06:42:51;;;;;;;10.30;2.20;;;5.00;99.90;;;;;;6268548;28;20045;-83
2024/02/07 06:45:53;;;;;;;7.55;2.00;;;5.00;99.90;;;;;;6294952;28;20053;-85
2024/02/07 06:48:55;;;;;;;11.18;2.20;;;5.00;99.90;;;;;;6274169;28;20068;-85
2024/02/07 06:51:57;;;;;;;6.00;1.50;;;5.00;99.90;;;;;;6297889;28;20051;-84
2024/02/07 06:54:58;;;;;;;7.88;1.90;;;5.00;99.90;;;;;;6272677;28;20079;-85
2024/02/07 06:58:00;;;;;;;7.93;1.92;;;5.00;99.90;;;;;;6273585;28;20446;-85
2024/02/07 07:01:01;;;;;;;7.68;2.10;;;5.10;99.90;;;;;;6272734;28;20064;-84
2024/02/07 07:04:03;;;;;;;8.25;2.45;;;5.00;99.90;;;;;;6295239;28;20499;-85
2024/02/07 07:07:05;;;;;;;11.00;2.88;;;5.00;99.90;;;;;;6273112;28;20064;-84
2024/02/07 07:10:07;;;;;;;8.48;2.33;;;5.00;99.90;;;;;;6295278;28;20487;-85
2024/02/07 07:13:09;;;;;;;10.20;2.63;;;5.00;99.90;;;;;;6265586;28;20052;-84
2024/02/07 07:16:10;;;;;;;6.55;2.42;;;4.90;99.90;;;;;;6271973;28;20053;-84
2024/02/07 07:19:12;;;;;;;10.93;2.63;;;5.00;99.90;;;;;;6297660;28;20087;-85
2024/02/07 07:22:14;;;;;;;11.02;2.70;;;5.00;99.90;;;;;;6271751;28;20060;-83
2024/02/07 07:25:16;;;;;;;10.93;2.83;;;5.00;99.90;;;;;;6296770;28;20058;-82
2024/02/07 07:28:18;;;;;;;10.02;2.90;;;5.00;99.90;;;;;;6269731;28;20056;-83
2024/02/07 07:31:19;;;;;;;12.57;3.05;;;5.00;99.90;;;;;;6297415;28;20054;-83
2024/02/07 07:34:21;;;;;;;10.82;3.20;;;5.10;99.90;;;;;;6273080;28;20136;-84
2024/02/07 07:37:23;;;;;;;8.32;3.08;;;5.00;99.90;;;;;;6300156;28;20101;-84
2024/02/07 07:40:26;;;;;;;10.55;3.28;;;5.00;99.90;;;;;;6271809;28;20429;-83
2024/02/07 07:43:28;;;;;;;11.63;3.42;;;5.00;99.90;;;;;;6266689;28;20045;-84
2024/02/07 07:46:30;;;;;;;12.80;3.78;;;5.00;99.90;;;;;;6296600;28;20056;-83
2024/02/07 07:49:32;;;;;;;13.15;3.22;;;5.10;99.90;;;;;;6271450;28;20060;-83
2024/02/07 07:52:33;;;;;;;9.75;3.15;;;5.10;99.90;;;;;;6293547;28;20083;-83
2024/02/07 07:55:36;;;;;;;8.85;3.10;;;5.10;99.90;;;;;;6271475;28;20052;-83
2024/02/07 07:58:40;;;;;;;12.90;3.28;;;5.20;99.90;;;;;;6264634;28;20059;-83
2024/02/07 08:01:53;;;;;;;17.20;3.42;;;5.10;99.90;;;;;;6270214;28;20053;-84
2024/02/07 08:04:54;;;;;;;14.95;3.30;;;5.00;99.90;;;;;;6293711;28;20055;-84
2024/02/07 08:07:56;;;;;;;9.25;2.75;;;5.10;99.90;;;;;;6270165;28;20059;-83
2024/02/07 08:10:58;;;;;;;15.65;3.15;;;5.10;99.90;;;;;;6294618;28;20061;-83
2024/02/07 08:14:00;;;;;;;12.35;2.83;;;5.00;99.90;;;;;;6269608;28;20103;-83
2024/02/07 08:17:02;;;;;;;13.65;3.15;;;5.00;99.90;;;;;;6271807;28;20056;-83
2024/02/07 08:20:03;;;;;;;12.95;2.55;;;5.10;99.90;;;;;;6297871;28;20503;-82
2024/02/07 08:23:05;;;;;;;8.95;2.70;;;5.30;99.90;;;;;;6273155;28;20044;-83
2024/02/07 08:26:07;;;;;;;10.07;2.45;;;5.30;99.90;;;;;;6290699;28;20495;-84
2024/02/07 08:29:08;;;;;;;7.22;2.28;;;5.30;99.90;;;;;;6277163;28;20056;-81
2024/02/07 08:32:10;;;;;;;10.80;2.50;;;5.30;99.90;;;;;;6297223;28;20048;-85
2024/02/07 08:35:12;;;;;;;13.20;2.10;;;5.40;99.90;;;;;;6271936;28;20061;-87
2024/02/07 08:38:14;;;;;;;8.40;2.08;;;5.40;99.90;;;;;;6296151;28;20048;-86
2024/02/07 08:41:15;;;;;;;15.40;2.38;;;5.40;99.90;;;;;;6272694;28;20052;-84
2024/02/07 08:44:17;;;;;;;6.43;2.20;;;5.40;99.90;;;;;;6272465;28;20065;-88
2024/02/07 08:47:19;;;;;;;10.10;2.47;;;5.70;99.90;;;;;;6279412;28;20425;-84
2024/02/07 08:50:21;;;;;;;10.00;2.33;;;5.70;99.90;;;;;;6299359;28;20056;-85
2024/02/07 08:53:22;;;;;;;8.70;2.28;;;5.60;99.90;;;;;;6277011;28;20468;-85
2024/02/07 08:56:24;;;;;;;12.55;2.78;;;5.60;99.90;;;;;;6300711;28;20045;-85
2024/02/07 08:59:26;;;;;;;12.50;3.88;;;5.60;99.90;;;;;;6258751;28;20143;-86
2024/02/07 09:02:27;;;;;;;14.45;4.90;;;5.70;99.90;;;;;;6299693;28;20061;-86
2024/02/07 09:05:29;;;;;;;20.70;5.30;;;5.60;99.90;;;;;;6278034;28;20071;-86
2024/02/07 09:08:31;;;;;;;17.95;5.68;;;5.80;99.90;;;;;;6305202;28;20052;-86
2024/02/07 09:11:33;;;;;;;14.18;4.38;;;5.70;99.90;;;;;;6280834;28;20045;-89
2024/02/07 09:14:36;;;;;;;14.63;5.95;;;5.80;99.90;;;;;;6280999;28;20067;-88
2024/02/07 09:17:37;;;;;;;16.05;4.50;;;5.80;99.90;;;;;;6276604;28;20202;-89
2024/02/07 09:20:39;;;;;;;9.63;2.65;;;5.90;99.90;;;;;;6304506;28;20062;-89
2024/02/07 09:23:41;;;;;;;9.18;2.45;;;5.90;99.90;;;;;;6290250;28;20063;-87
2024/02/07 09:26:43;;;;;;;14.68;2.67;;;5.90;99.90;;;;;;6293751;28;20055;-89
2024/02/07 09:29:44;;;;;;;9.68;2.33;;;5.90;99.90;;;;;;6254245;28;20079;-88
2024/02/07 09:32:48;;;;;;;13.63;2.85;;;5.90;99.90;;;;;;6268519;28;20076;-89
2024/02/07 09:35:50;;;;;;;12.05;2.85;;;5.90;99.90;;;;;;6292580;28;20182;-83
2024/02/07 09:38:52;;;;;;;9.02;2.78;;;5.90;99.90;;;;;;6269232;28;20059;-86
2024/02/07 09:41:54;;;;;;;17.38;3.63;;;6.00;99.90;;;;;;6291975;28;20049;-84
2024/02/07 09:44:56;;;;;;;10.93;2.92;;;6.00;99.90;;;;;;6261582;28;20139;-85
2024/02/07 09:48:01;;;;;;;13.65;2.63;;;6.10;99.90;;;;;;6268720;28;20443;-86
2024/02/07 09:51:03;;;;;;;17.15;3.05;;;6.10;99.90;;;;;;6291862;28;20590;-89
2024/02/07 09:54:05;;;;;;;10.90;2.28;;;6.30;99.90;;;;;;6269358;28;20053;-86
2024/02/07 09:57:07;;;;;;;17.33;2.75;;;6.40;99.90;;;;;;6291837;28;20059;-82
2024/02/07 10:00:08;;;;;;;15.10;2.58;;;6.40;99.90;;;;;;6249349;28;20045;-87
2024/02/07 10:03:12;;;;;;;8.18;2.00;;;6.50;99.90;;;;;;6283941;28;20131;-85
2024/02/07 10:06:13;;;;;;;10.35;2.42;;;6.60;99.90;;;;;;6291598;28;20056;-87
2024/02/07 10:09:15;;;;;;;9.60;2.30;;;6.70;99.90;;;;;;6267665;28;20174;-91
2024/02/07 10:12:17;;;;;;;7.93;1.98;;;6.60;99.90;;;;;;6291276;28;20045;-84
2024/02/07 10:15:19;;;;;;;9.35;2.15;;;6.80;99.90;;;;;;6268427;28;20064;-85
2024/02/07 10:18:21;;;;;;;7.05;1.90;;;6.90;99.90;;;;;;6267304;28;20401;-89
2024/02/07 10:21:23;;;;;;;10.25;2.15;;;7.00;99.90;;;;;;6294778;28;20512;-84
2024/02/07 10:24:24;;;;;;;11.40;2.33;;;7.10;99.90;;;;;;6273871;28;20405;-86
2024/02/07 10:27:27;;;;;;;8.05;2.22;;;7.00;99.90;;;;;;6292817;28;20048;-85
2024/02/07 10:30:29;;;;;;;8.15;1.80;;;6.90;99.90;;;;;;6270904;28;20072;-84
2024/02/07 10:33:31;;;;;;;11.70;2.17;;;6.80;99.90;;;;;;6272541;28;20053;-84
2024/02/07 10:36:40;;;;;;;7.60;2.03;;;6.90;99.90;;;;;;6272012;28;20061;-84
2024/02/07 10:39:42;;;;;;;8.45;2.40;;;6.90;99.90;;;;;;6295928;28;20454;-85
2024/02/07 10:43:00;;;;;;;9.35;2.45;;;6.80;99.90;;;;;;6271408;28;20048;-86
2024/02/07 10:46:02;;;;;;;11.55;2.90;;;7.00;99.90;;;;;;6296061;28;20629;-90
2024/02/07 10:49:05;;;;;;;9.43;2.53;;;7.20;99.90;;;;;;6273452;28;20136;-85
2024/02/07 10:52:07;;;;;;;8.40;2.17;;;7.30;99.90;;;;;;6297858;28;20056;-88
2024/02/07 10:55:08;;;;;;;12.27;3.15;;;7.50;99.90;;;;;;6272770;28;20060;-88
2024/02/07 10:58:13;;;;;;;7.35;1.80;;;7.50;99.90;;;;;;6267640;28;20076;-88
2024/02/07 11:01:15;;;;;;;10.38;2.55;;;7.40;99.90;;;;;;6294559;28;20055;-86
2024/02/07 11:04:17;;;;;;;10.93;2.08;;;7.30;99.90;;;;;;6298203;28;20056;-87
2024/02/07 11:07:19;;;;;;;11.30;2.03;;;7.30;99.90;;;;;;6274487;28;20511;-86
2024/02/07 11:10:22;;;;;;;7.32;1.88;;;7.20;99.90;;;;;;6298798;28;20563;-87
2024/02/07 11:13:24;;;;;;;8.13;1.63;;;7.20;99.90;;;;;;6268154;28;20068;-87
2024/02/07 11:16:26;;;;;;;6.65;1.33;;;7.20;99.90;;;;;;6280451;28;20056;-84
2024/02/07 11:19:28;;;;;;;10.40;2.08;;;7.20;99.90;;;;;;6300501;28;20049;-85
2024/02/07 11:22:30;;;;;;;11.38;1.63;;;7.30;99.90;;;;;;6277016;28;20064;-85
2024/02/07 11:25:32;;;;;;;9.60;1.92;;;7.20;99.90;;;;;;6296599;28;20426;-85
2024/02/07 11:28:34;;;;;;;7.57;1.67;;;7.40;99.90;;;;;;6284081;28;20461;-86
2024/02/07 11:31:35;;;;;;;10.48;1.70;;;7.60;99.90;;;;;;6280614;28;20057;-86
2024/02/07 11:34:37;;;;;;;4.43;1.00;;;7.80;99.90;;;;;;6298933;28;20164;-86
2024/02/07 11:37:39;;;;;;;7.65;1.48;;;7.90;99.90;;;;;;6278349;28;20156;-86
2024/02/07 11:40:41;;;;;;;6.43;1.70;;;7.80;99.90;;;;;;6295240;28;20057;-86
2024/02/07 11:43:54;;;;;;;7.25;1.75;;;7.70;99.90;;;;;;6272530;28;20389;-85
2024/02/07 11:46:56;;;;;;;6.53;1.45;;;7.70;99.90;;;;;;6271620;28;20052;-84
2024/02/07 11:50:07;;;;;;;7.80;1.50;;;7.70;99.90;;;;;;6271216;28;20415;-83
2024/02/07 11:53:09;;;;;;;5.18;1.33;;;7.70;99.90;;;;;;6297148;28;20430;-90
2024/02/07 11:56:10;;;;;;;5.68;1.40;;;7.70;99.90;;;;;;6271041;28;20487;-80
2024/02/07 11:59:12;;;;;;;7.53;1.67;;;7.70;99.90;;;;;;6275348;28;20052;-83
2024/02/07 12:02:14;;;;;;;8.18;1.75;;;7.90;99.90;;;;;;6271328;28;20187;-82
2024/02/07 12:05:16;;;;;;;4.32;1.45;;;8.00;99.90;;;;;;6294242;28;20143;-83
2024/02/07 12:08:18;;;;;;;9.02;1.50;;;7.90;99.90;;;;;;6269572;28;20053;-83
2024/02/07 12:11:20;;;;;;;8.15;1.42;;;7.80;99.90;;;;;;6293370;28;20465;-85
2024/02/07 12:14:22;;;;;;;6.57;1.20;;;7.90;99.90;;;;;;6251053;28;20496;-85
2024/02/07 12:17:24;;;;;;;10.05;1.40;;;8.00;99.90;;;;;;6293664;28;20423;-84
2024/02/07 12:20:25;;;;;;;6.25;1.10;;;7.80;99.90;;;;;;6268982;28;20491;-85
2024/02/07 12:23:28;;;;;;;6.30;1.50;;;7.70;99.90;;;;;;6294539;28;20052;-84
2024/02/07 12:26:30;;;;;;;6.35;1.63;;;7.70;99.90;;;;;;6268850;28;20110;-84
2024/02/07 12:29:31;;;;;;;8.00;1.63;;;7.70;99.90;;;;;;6278707;28;20052;-86
2024/02/07 12:32:33;;;;;;;6.03;1.80;;;7.70;99.90;;;;;;6289910;28;20059;-84
2024/02/07 12:35:39;;;;;;;6.65;1.80;;;7.70;99.90;;;;;;6269005;28;20064;-83
2024/02/07 12:38:42;;;;;;;8.88;2.10;;;7.60;99.90;;;;;;6293734;28;20052;-86
2024/02/07 12:41:43;;;;;;;10.82;1.73;;;7.70;99.90;;;;;;6269169;28;20057;-85
2024/02/07 12:44:45;;;;;;;8.73;1.95;;;7.60;99.90;;;;;;6263411;28;20067;-85
2024/02/07 12:47:47;;;;;;;11.40;2.55;;;7.70;99.90;;;;;;6292819;28;20068;-84
2024/02/07 12:50:49;;;;;;;9.80;2.28;;;7.70;99.90;;;;;;6270443;28;20053;-84
2024/02/07 12:53:51;;;;;;;12.18;2.65;;;7.70;99.90;;;;;;6292694;28;20048;-84
2024/02/07 12:56:55;;;;;;;12.93;2.95;;;7.70;99.90;;;;;;6270761;28;20053;-85
2024/02/07 12:59:57;;;;;;;14.25;2.70;;;7.60;99.90;;;;;;6273271;28;20264;-86
2024/02/07 13:02:59;;;;;;;14.93;2.72;;;7.60;99.90;;;;;;6268561;28;20446;-84
2024/02/07 13:06:00;;;;;;;8.88;2.33;;;7.70;99.90;;;;;;6291933;28;20419;-85
2024/02/07 13:09:02;;;;;;;12.07;2.80;;;7.80;99.90;;;;;;6268643;28;20055;-85
2024/02/07 13:12:04;;;;;;;13.07;2.80;;;7.70;99.90;;;;;;6292381;28;20403;-85
2024/02/07 13:15:19;;;;;;;13.10;2.90;;;7.70;99.90;;;;;;6264557;28;20049;-86
2024/02/07 13:18:21;;;;;;;10.50;2.38;;;7.70;99.90;;;;;;6300440;28;20100;-85
2024/02/07 13:21:22;;;;;;;9.40;2.35;;;7.70;99.90;;;;;;6293182;28;20055;-85
2024/02/07 13:24:24;;;;;;;13.25;2.65;;;7.60;99.90;;;;;;6268619;28;20049;-85
2024/02/07 13:27:26;;;;;;;10.68;2.72;;;7.50;99.90;;;;;;6292667;28;20045;-86
2024/02/07 13:30:28;;;;;;;10.18;2.42;;;7.50;99.90;;;;;;6248859;28;20052;-85
2024/02/07 13:33:29;;;;;;;12.52;2.70;;;7.40;99.90;;;;;;6268905;28;20071;-86
2024/02/07 13:36:31;;;;;;;14.23;2.60;;;7.40;99.90;;;;;;6292190;28;20126;-85
2024/02/07 13:39:33;;;;;;;8.65;2.17;;;7.40;99.90;;;;;;6270246;28;20049;-84
2024/02/07 13:42:41;;;;;;;9.20;2.58;;;7.30;99.90;;;;;;6290814;28;20059;-85
2024/02/07 13:46:01;;;;;;;12.98;2.40;;;7.40;99.90;;;;;;6269216;28;20057;-85
2024/02/07 13:49:08;;;;;;;14.63;2.42;;;7.40;99.90;;;;;;6293049;28;20052;-85
2024/02/07 13:52:10;;;;;;;9.05;2.22;;;7.50;99.90;;;;;;6267544;28;20131;-86
2024/02/07 13:55:11;;;;;;;10.93;2.58;;;7.50;99.90;;;;;;6291207;28;20106;-85
2024/02/07 13:58:18;;;;;;;10.25;2.35;;;7.50;99.90;;;;;;6260476;28;20049;-85
2024/02/07 14:01:20;;;;;;;11.95;2.60;;;7.50;99.90;;;;;;6287764;28;20057;-86
2024/02/07 14:04:22;;;;;;;11.57;2.58;;;7.50;99.90;;;;;;6311685;28;20071;-87
